createdAt,value
2019-01-19T00:01:08.821Z,39.53
2019-01-19T00:04:31.657Z,35.07
2019-01-19T00:07:37.999Z,32.83
2019-01-19T00:10:44.944Z,41.77
2019-01-19T00:13:51.502Z,30.07
2019-01-19T00:16:58.859Z,37.47
2019-01-19T00:20:00.981Z,34.43
2019-01-19T00:23:00.224Z,37.03
2019-01-19T00:26:12.361Z,35.53
2019-01-19T00:28:49.954Z,37.70
2019-01-19T00:31:54.945Z,40.73
2019-01-19T00:35:06.658Z,32.40
2019-01-19T00:37:58.604Z,35.53
2019-01-19T00:41:14.225Z,35.70
2019-01-19T00:43:51.147Z,35.37
2019-01-19T00:46:57.725Z,35.20
2019-01-19T00:49:37.889Z,34.33
2019-01-19T00:52:26.009Z,32.57
2019-01-19T00:55:38.667Z,36.27
2019-01-19T00:58:33.390Z,32.80
2019-01-19T01:01:50.237Z,34.80
2019-01-19T01:04:55.195Z,36.20
2019-01-19T01:08:10.851Z,33.53
2019-01-19T01:10:54.409Z,37.03
2019-01-19T01:14:03.752Z,37.07
2019-01-19T01:17:02.680Z,32.57
2019-01-19T01:19:59.329Z,30.83
2019-01-19T01:22:56.194Z,40.30
2019-01-19T01:26:18.143Z,36.00
2019-01-19T01:29:31.355Z,33.83
2019-01-19T01:32:14.779Z,36.13
2019-01-19T01:35:22.239Z,31.00
2019-01-19T01:38:14.942Z,27.97
2019-01-19T01:41:19.938Z,34.83
2019-01-19T01:44:30.139Z,27.80
2019-01-19T01:47:54.435Z,32.57
2019-01-19T01:51:01.092Z,28.37
2019-01-19T01:54:01.435Z,27.87
2019-01-19T01:56:31.151Z,31.10
2019-01-19T01:59:12.819Z,29.90
2019-01-19T02:02:16.444Z,28.07
2019-01-19T02:05:25.238Z,28.10
2019-01-19T02:08:24.052Z,29.03
2019-01-19T02:11:24.678Z,26.63
2019-01-19T02:14:27.988Z,22.63
2019-01-19T02:17:53.939Z,28.37
2019-01-19T02:20:38.896Z,35.03
2019-01-19T02:23:45.585Z,30.70
2019-01-19T02:27:01.514Z,27.60
2019-01-19T02:29:56.099Z,28.47
2019-01-19T02:33:03.529Z,25.70
2019-01-19T02:36:12.832Z,28.47
2019-01-19T02:39:27.267Z,29.47
2019-01-19T02:42:33.350Z,24.57
2019-01-19T02:45:37.416Z,28.17
2019-01-19T02:48:51.861Z,25.80
2019-01-19T02:51:56.642Z,28.47
2019-01-19T02:55:22.596Z,24.77
2019-01-19T02:58:27.830Z,28.10
2019-01-19T03:01:37.387Z,25.53
2019-01-19T03:04:56.971Z,28.43
2019-01-19T03:07:44.516Z,31.07
2019-01-19T03:10:47.836Z,28.80
2019-01-19T03:13:47.890Z,22.57
2019-01-19T03:17:13.857Z,27.37
2019-01-19T03:20:17.711Z,26.47
2019-01-19T03:23:13.781Z,28.40
2019-01-19T03:26:11.321Z,22.17
2019-01-19T03:29:20.757Z,24.43
2019-01-19T03:32:25.909Z,27.87
2019-01-19T03:35:27.993Z,23.20
2019-01-19T03:38:40.311Z,26.80
2019-01-19T03:41:49.518Z,27.93
2019-01-19T03:45:21.041Z,27.57
2019-01-19T03:48:06.411Z,30.53
2019-01-19T03:51:22.069Z,22.20
2019-01-19T03:53:56.757Z,23.40
2019-01-19T03:56:49.131Z,23.57
2019-01-19T03:59:56.231Z,25.63
2019-01-19T04:03:01.287Z,25.17
2019-01-19T04:06:12.604Z,28.27
2019-01-19T04:09:16.050Z,25.03
2019-01-19T04:12:53.756Z,22.80
2019-01-19T04:15:58.901Z,22.17
2019-01-19T04:18:59.639Z,22.10
2019-01-19T04:22:08.419Z,23.87
2019-01-19T04:25:24.630Z,25.30
2019-01-19T04:27:53.939Z,25.13
2019-01-19T04:30:22.973Z,22.93
2019-01-19T04:32:52.141Z,22.70
2019-01-19T04:35:21.701Z,24.80
2019-01-19T04:37:51.121Z,21.63
2019-01-19T04:40:20.143Z,23.23
2019-01-19T04:42:49.449Z,23.07
2019-01-19T04:45:18.516Z,23.60
2019-01-19T04:47:48.825Z,24.40
2019-01-19T04:50:18.320Z,24.93
2019-01-19T04:52:47.765Z,22.97
2019-01-19T04:55:16.771Z,21.17
2019-01-19T04:57:46.957Z,22.43
2019-01-19T05:00:18.215Z,25.07
2019-01-19T05:02:48.832Z,25.60
2019-01-19T05:05:17.855Z,17.97
2019-01-19T05:07:46.865Z,19.50
2019-01-19T05:10:16.898Z,19.77
2019-01-19T05:12:46.505Z,19.90
2019-01-19T05:15:20.763Z,20.67
2019-01-19T05:17:50.681Z,18.80
2019-01-19T05:20:19.972Z,24.53
2019-01-19T05:22:49.119Z,19.80
2019-01-19T05:25:18.532Z,18.73
2019-01-19T05:27:47.919Z,21.40
2019-01-19T05:30:19.779Z,20.37
2019-01-19T05:32:48.909Z,24.53
2019-01-19T05:35:17.991Z,23.80
2019-01-19T05:37:47.419Z,22.73
2019-01-19T05:40:16.522Z,21.23
2019-01-19T05:42:45.984Z,21.63
2019-01-19T05:45:16.042Z,22.37
2019-01-19T05:47:45.098Z,22.40
2019-01-19T05:50:17.106Z,21.17
2019-01-19T05:52:46.357Z,25.77
2019-01-19T05:55:15.802Z,21.97
2019-01-19T05:57:44.845Z,20.63
2019-01-19T06:00:19.901Z,22.17
2019-01-19T06:02:49.333Z,19.80
2019-01-19T06:05:18.935Z,19.37
2019-01-19T06:07:48.717Z,23.07
2019-01-19T06:10:18.330Z,22.43
2019-01-19T06:12:47.375Z,22.13
2019-01-19T06:15:16.909Z,20.13
2019-01-19T06:17:45.939Z,22.27
2019-01-19T06:20:15.975Z,24.87
2019-01-19T06:22:45.472Z,21.13
2019-01-19T06:25:15.642Z,21.80
2019-01-19T06:27:45.095Z,23.03
2019-01-19T06:30:19.914Z,25.73
2019-01-19T06:32:49.095Z,21.10
2019-01-19T06:35:18.250Z,26.53
2019-01-19T06:37:47.989Z,24.47
2019-01-19T06:40:18.051Z,26.17
2019-01-19T06:42:47.241Z,21.77
2019-01-19T06:45:21.795Z,23.80
2019-01-19T06:47:50.907Z,23.27
2019-01-19T06:50:19.905Z,20.93
2019-01-19T06:52:49.265Z,24.53
2019-01-19T06:55:20.881Z,23.10
2019-01-19T06:57:50.315Z,25.00
2019-01-19T07:00:20.486Z,21.60
2019-01-19T07:02:49.564Z,20.77
2019-01-19T07:05:18.623Z,21.93
2019-01-19T07:07:48.630Z,21.23
2019-01-19T07:10:19.872Z,19.87
2019-01-19T07:12:48.873Z,23.10
2019-01-19T07:15:17.931Z,21.83
2019-01-19T07:17:47.031Z,20.77
2019-01-19T07:20:22.031Z,21.10
2019-01-19T07:22:51.060Z,22.93
2019-01-19T07:25:20.457Z,22.60
2019-01-19T07:27:49.889Z,20.47
2019-01-19T07:30:19.695Z,23.13
2019-01-19T07:32:48.841Z,25.97
2019-01-19T07:35:17.972Z,25.47
2019-01-19T07:37:47.019Z,20.77
2019-01-19T07:40:17.161Z,22.47
2019-01-19T07:42:47.126Z,22.77
2019-01-19T07:45:17.183Z,21.13
2019-01-19T07:47:46.284Z,18.60
2019-01-19T07:50:16.972Z,19.93
2019-01-19T07:52:46.460Z,23.03
2019-01-19T07:55:16.555Z,21.70
2019-01-19T07:57:45.979Z,21.23
2019-01-19T08:00:26.654Z,21.60
2019-01-19T08:02:56.057Z,22.17
2019-01-19T08:05:25.076Z,23.90
2019-01-19T08:07:54.193Z,17.63
2019-01-19T08:10:23.657Z,21.40
2019-01-19T08:12:52.971Z,19.63
2019-01-19T08:15:23.984Z,18.10
2019-01-19T08:17:52.984Z,23.07
2019-01-19T08:20:22.232Z,20.87
2019-01-19T08:22:51.795Z,16.20
2019-01-19T08:25:20.980Z,21.10
2019-01-19T08:27:50.088Z,16.20
2019-01-19T08:30:22.541Z,23.53
2019-01-19T08:32:51.855Z,19.77
2019-01-19T08:35:21.022Z,20.60
2019-01-19T08:37:50.953Z,19.10
2019-01-19T08:40:25.442Z,22.40
2019-01-19T08:43:07.991Z,22.13
2019-01-19T08:45:37.147Z,19.73
2019-01-19T08:48:06.468Z,25.43
2019-01-19T08:50:35.607Z,18.57
2019-01-19T08:53:04.999Z,19.37
2019-01-19T08:55:34.315Z,21.50
2019-01-19T08:58:03.359Z,21.93
2019-01-19T09:00:32.397Z,16.63
2019-01-19T09:03:01.563Z,22.67
2019-01-19T09:05:30.655Z,19.67
2019-01-19T09:07:59.787Z,17.23
2019-01-19T09:10:28.851Z,17.63
2019-01-19T09:12:58.327Z,17.40
2019-01-19T09:15:27.345Z,16.93
2019-01-19T09:17:56.712Z,16.63
2019-01-19T09:20:25.772Z,14.63
2019-01-19T09:22:59.467Z,18.40
2019-01-19T09:25:28.855Z,21.23
2019-01-19T09:27:58.911Z,23.77
2019-01-19T09:30:28.096Z,19.77
2019-01-19T09:32:57.694Z,18.57
2019-01-19T09:35:27.335Z,19.90
2019-01-19T09:37:56.421Z,17.83
2019-01-19T09:40:25.931Z,17.67
2019-01-19T09:42:54.988Z,16.67
2019-01-19T09:45:24.049Z,19.17
2019-01-19T09:47:53.097Z,16.67
2019-01-19T09:50:22.781Z,17.10
2019-01-19T09:52:52.544Z,18.00
2019-01-19T09:55:22.907Z,18.30
2019-01-19T09:57:51.931Z,16.17
2019-01-19T10:00:22.114Z,12.47
2019-01-19T10:02:51.144Z,15.13
2019-01-19T10:05:21.667Z,21.47
2019-01-19T10:07:50.731Z,16.87
2019-01-19T10:10:19.724Z,17.77
2019-01-19T10:12:49.078Z,16.70
2019-01-19T10:15:18.182Z,15.63
2019-01-19T10:17:47.621Z,14.37
2019-01-19T10:20:19.206Z,11.80
2019-01-19T10:22:48.649Z,14.33
2019-01-19T10:25:18.172Z,14.80
2019-01-19T10:27:47.173Z,14.97
2019-01-19T10:30:18.589Z,11.50
2019-01-19T10:32:47.693Z,17.17
2019-01-19T10:35:16.977Z,17.90
2019-01-19T10:37:46.061Z,13.17
2019-01-19T10:40:15.674Z,13.27
2019-01-19T10:42:45.258Z,13.07
2019-01-19T10:45:16.932Z,12.40
2019-01-19T10:47:46.370Z,13.03
2019-01-19T10:50:16.332Z,12.67
2019-01-19T10:52:45.384Z,13.50
2019-01-19T10:55:18.878Z,14.23
2019-01-19T10:57:48.283Z,11.03
2019-01-19T11:00:19.899Z,16.17
2019-01-19T11:02:48.921Z,11.90
2019-01-19T11:05:17.962Z,12.57
2019-01-19T11:07:48.078Z,12.77
2019-01-19T11:10:19.360Z,10.90
2019-01-19T11:12:48.382Z,13.77
2019-01-19T11:15:18.158Z,15.67
2019-01-19T11:17:47.422Z,12.73
2019-01-19T11:20:18.838Z,12.37
2019-01-19T11:22:48.476Z,15.60
2019-01-19T11:25:17.578Z,13.83
2019-01-19T11:27:47.086Z,13.33
2019-01-19T11:30:21.652Z,14.33
2019-01-19T11:32:51.028Z,13.27
2019-01-19T11:35:20.476Z,13.90
2019-01-19T11:37:49.511Z,14.20
2019-01-19T11:40:27.234Z,12.70
2019-01-19T11:42:57.795Z,12.43
2019-01-19T11:45:26.910Z,12.47
2019-01-19T11:47:55.974Z,12.27
2019-01-19T11:50:25.332Z,12.67
2019-01-19T11:52:54.396Z,11.20
2019-01-19T11:55:24.416Z,11.40
2019-01-19T11:57:59.294Z,12.57
2019-01-19T12:00:29.870Z,12.20
2019-01-19T12:02:58.882Z,11.60
2019-01-19T12:05:27.943Z,12.30
2019-01-19T12:07:56.978Z,14.87
2019-01-19T12:10:28.060Z,13.60
2019-01-19T12:12:57.672Z,12.57
2019-01-19T12:15:27.286Z,13.80
2019-01-19T12:17:56.406Z,12.17
2019-01-19T12:20:37.420Z,12.60
2019-01-19T12:23:07.624Z,12.97
2019-01-19T12:25:36.706Z,13.43
2019-01-19T12:28:05.940Z,15.93
2019-01-19T12:30:35.309Z,11.97
2019-01-19T12:33:04.702Z,14.00
2019-01-19T12:35:33.940Z,12.73
2019-01-19T12:38:03.318Z,11.20
2019-01-19T12:40:32.332Z,13.43
2019-01-19T12:43:04.157Z,14.83
2019-01-19T12:45:39.889Z,15.47
2019-01-19T12:48:09.327Z,14.87
2019-01-19T12:50:38.425Z,14.80
2019-01-19T12:53:08.135Z,15.97
2019-01-19T12:55:37.274Z,12.50
2019-01-19T12:58:07.676Z,12.20
2019-01-19T13:00:37.057Z,14.90
2019-01-19T13:03:07.982Z,15.27
2019-01-19T13:05:54.036Z,13.60
2019-01-19T13:08:24.054Z,11.77
2019-01-19T13:11:07.966Z,11.83
2019-01-19T13:13:45.030Z,14.27
2019-01-19T13:17:09.426Z,13.00
2019-01-19T13:19:57.466Z,14.43
2019-01-19T13:23:02.800Z,12.77
2019-01-19T13:26:19.163Z,12.07
2019-01-19T13:29:27.853Z,14.33
2019-01-19T13:32:28.875Z,15.73
2019-01-19T13:35:44.778Z,16.67
2019-01-19T13:38:48.995Z,13.57
2019-01-19T13:41:59.154Z,12.83
2019-01-19T13:44:46.992Z,13.53
2019-01-19T13:47:51.937Z,12.30
2019-01-19T13:50:58.268Z,21.50
2019-01-19T13:53:41.518Z,13.03
2019-01-19T13:56:38.898Z,11.53
2019-01-19T13:59:24.368Z,14.70
2019-01-19T14:02:20.304Z,13.47
2019-01-19T14:05:04.344Z,15.03
2019-01-19T14:08:03.383Z,12.37
2019-01-19T14:11:16.745Z,11.10
2019-01-19T14:14:10.686Z,14.30
2019-01-19T14:17:17.002Z,13.93
2019-01-19T14:20:05.934Z,11.93
2019-01-19T14:23:11.312Z,11.23
2019-01-19T14:26:27.979Z,12.33
2019-01-19T14:29:38.254Z,11.43
2019-01-19T14:32:57.626Z,12.00
2019-01-19T14:35:53.945Z,12.43
2019-01-19T14:39:06.608Z,14.73
2019-01-19T14:42:06.345Z,17.43
2019-01-19T14:45:20.324Z,13.70
2019-01-19T14:48:35.116Z,11.50
2019-01-19T14:51:28.880Z,15.57
2019-01-19T14:54:24.964Z,13.60
2019-01-19T14:57:18.170Z,13.67
2019-01-19T15:00:31.554Z,16.10
2019-01-19T15:03:32.797Z,13.17
2019-01-19T15:06:44.495Z,15.50
2019-01-19T15:10:03.983Z,12.73
2019-01-19T15:12:59.990Z,10.90
2019-01-19T15:16:04.426Z,14.00
2019-01-19T15:19:33.022Z,14.47
2019-01-19T15:22:43.124Z,13.53
2019-01-19T15:25:59.522Z,17.30
2019-01-19T15:29:21.106Z,14.23
2019-01-19T15:32:26.039Z,15.90
2019-01-19T15:35:30.988Z,15.90
2019-01-19T15:38:22.277Z,15.20
2019-01-19T15:41:09.290Z,10.97
2019-01-19T15:44:09.944Z,13.33
2019-01-19T15:47:22.234Z,13.47
2019-01-19T15:50:16.011Z,16.37
2019-01-19T15:53:09.753Z,12.00
2019-01-19T15:56:02.556Z,14.30
2019-01-19T15:58:59.389Z,13.67
2019-01-19T16:02:06.936Z,18.67
2019-01-19T16:05:06.324Z,14.47
2019-01-19T16:08:25.685Z,15.80
2019-01-19T16:11:36.167Z,15.67
2019-01-19T16:14:57.390Z,14.87
2019-01-19T16:17:56.523Z,17.37
2019-01-19T16:20:51.990Z,14.90
2019-01-19T16:23:47.886Z,11.63
2019-01-19T16:26:37.204Z,16.00
2019-01-19T16:29:43.427Z,14.50
2019-01-19T16:32:36.720Z,13.80
2019-01-19T16:35:45.830Z,15.20
2019-01-19T16:38:37.911Z,11.93
2019-01-19T16:41:53.714Z,15.93
2019-01-19T16:45:07.979Z,14.67
2019-01-19T16:48:22.848Z,11.17
2019-01-19T16:51:32.248Z,15.13
2019-01-19T16:54:16.547Z,10.47
2019-01-19T16:57:28.232Z,15.17
2019-01-19T17:01:02.574Z,15.53
2019-01-19T17:04:28.214Z,15.93
2019-01-19T17:07:45.638Z,17.73
2019-01-19T17:10:59.076Z,14.67
2019-01-19T17:14:12.029Z,16.87
2019-01-19T17:17:03.828Z,15.47
2019-01-19T17:20:07.303Z,15.73
2019-01-19T17:23:16.568Z,13.73
2019-01-19T17:26:29.365Z,12.13
2019-01-19T17:29:09.242Z,15.13
2019-01-19T17:32:04.358Z,15.33
2019-01-19T17:35:10.477Z,13.47
2019-01-19T17:38:16.393Z,16.10
2019-01-19T17:41:21.103Z,15.20
2019-01-19T17:44:00.304Z,18.90
2019-01-19T17:47:05.175Z,19.83
2019-01-19T17:49:56.649Z,15.97
2019-01-19T17:52:51.634Z,18.73
2019-01-19T17:55:57.678Z,18.13
2019-01-19T17:59:03.672Z,16.50
2019-01-19T18:02:14.035Z,16.60
2019-01-19T18:05:36.294Z,20.50
2019-01-19T18:09:02.159Z,20.50
2019-01-19T18:11:50.858Z,18.47
2019-01-19T18:14:52.610Z,19.20
2019-01-19T18:17:43.386Z,18.43
2019-01-19T18:20:50.618Z,19.10
2019-01-19T18:24:01.398Z,21.03
2019-01-19T18:27:27.012Z,22.63
2019-01-19T18:30:43.570Z,21.80
2019-01-19T18:33:38.194Z,19.90
2019-01-19T18:36:41.883Z,20.73
2019-01-19T18:39:58.176Z,19.30
2019-01-19T18:43:15.075Z,19.37
2019-01-19T18:46:18.831Z,20.63
2019-01-19T18:49:25.063Z,23.50
2019-01-19T18:52:35.532Z,30.20
2019-01-19T18:55:19.444Z,22.07
2019-01-19T18:58:36.435Z,23.20
2019-01-19T19:01:58.727Z,23.87
2019-01-19T19:04:46.314Z,25.30
2019-01-19T19:07:40.594Z,27.70
2019-01-19T19:10:55.998Z,23.23
2019-01-19T19:13:51.680Z,26.77
2019-01-19T19:17:05.022Z,23.30
2019-01-19T19:20:11.592Z,23.97
2019-01-19T19:23:19.543Z,23.07
2019-01-19T19:26:21.435Z,26.13
2019-01-19T19:29:46.626Z,23.57
2019-01-19T19:32:41.521Z,24.77
2019-01-19T19:35:50.931Z,22.40
2019-01-19T19:38:55.794Z,24.93
2019-01-19T19:42:03.151Z,23.30
2019-01-19T19:45:13.554Z,20.13
2019-01-19T19:48:10.743Z,22.37
2019-01-19T19:51:24.923Z,26.07
2019-01-19T19:53:54.334Z,22.60
2019-01-19T19:56:21.788Z,25.77
2019-01-19T19:58:50.808Z,22.53
2019-01-19T20:01:19.856Z,22.53
2019-01-19T20:03:49.248Z,22.33
2019-01-19T20:06:18.593Z,21.13
2019-01-19T20:08:47.625Z,25.63
2019-01-19T20:11:16.668Z,24.77
2019-01-19T20:13:45.726Z,25.13
2019-01-19T20:16:15.190Z,24.63
2019-01-19T20:18:44.238Z,24.47
2019-01-19T20:21:13.271Z,24.53
2019-01-19T20:23:42.329Z,25.20
2019-01-19T20:26:12.202Z,25.50
2019-01-19T20:28:41.552Z,20.73
2019-01-19T20:31:10.898Z,24.53
2019-01-19T20:33:40.317Z,24.77
2019-01-19T20:36:09.368Z,25.23
2019-01-19T20:38:38.405Z,25.10
2019-01-19T20:41:07.437Z,24.33
2019-01-19T20:43:36.808Z,24.80
2019-01-19T20:46:06.711Z,22.90
2019-01-19T20:48:35.933Z,23.63
2019-01-19T20:51:05.013Z,22.63
2019-01-19T20:53:34.107Z,23.20
2019-01-19T20:56:03.128Z,21.40
2019-01-19T20:58:32.150Z,27.93
2019-01-19T21:01:01.245Z,19.97
2019-01-19T21:03:30.321Z,24.87
2019-01-19T21:05:59.651Z,24.07
2019-01-19T21:08:28.780Z,21.83
2019-01-19T21:10:57.808Z,21.93
2019-01-19T21:13:26.874Z,22.20
2019-01-19T21:15:56.268Z,23.03
2019-01-19T21:18:25.696Z,22.73
2019-01-19T21:20:55.046Z,22.50
2019-01-19T21:23:24.398Z,23.50
2019-01-19T21:25:53.432Z,24.60
2019-01-19T21:28:22.464Z,22.33
2019-01-19T21:30:51.540Z,21.40
2019-01-19T21:33:20.642Z,22.27
2019-01-19T21:35:49.885Z,20.33
2019-01-19T21:38:18.983Z,26.90
2019-01-19T21:40:48.025Z,21.97
2019-01-19T21:43:17.077Z,23.37
2019-01-19T21:45:46.081Z,24.53
2019-01-19T21:48:15.316Z,24.30
2019-01-19T21:50:44.713Z,22.13
2019-01-19T21:53:13.765Z,22.00
2019-01-19T21:55:43.136Z,25.90
2019-01-19T21:58:12.167Z,24.20
2019-01-19T22:00:41.191Z,22.27
2019-01-19T22:03:10.631Z,23.83
2019-01-19T22:05:40.016Z,22.67
2019-01-19T22:08:09.081Z,25.90
2019-01-19T22:10:46.155Z,24.47
2019-01-19T22:13:10.598Z,24.47
2019-01-19T22:15:39.629Z,25.60
2019-01-19T22:18:09.007Z,24.83
2019-01-19T22:20:38.087Z,28.23
2019-01-19T22:23:07.487Z,25.10
2019-01-19T22:25:36.542Z,24.17
2019-01-19T22:28:06.017Z,25.67
2019-01-19T22:30:35.087Z,24.10
2019-01-19T22:33:04.136Z,21.40
2019-01-19T22:35:33.142Z,20.23
2019-01-19T22:38:02.261Z,21.40
2019-01-19T22:40:31.366Z,26.83
2019-01-19T22:43:03.368Z,19.57
2019-01-19T22:45:32.485Z,23.63
2019-01-19T22:48:02.314Z,23.13
2019-01-19T22:50:31.631Z,23.93
2019-01-19T22:53:00.843Z,23.33
2019-01-19T22:55:29.974Z,22.30
2019-01-19T22:57:59.409Z,23.60
2019-01-19T23:00:58.102Z,21.50
2019-01-19T23:03:28.305Z,21.30
2019-01-19T23:05:57.336Z,18.93
2019-01-19T23:08:26.967Z,22.70
2019-01-19T23:11:01.143Z,20.00
2019-01-19T23:13:27.084Z,18.83
2019-01-19T23:15:56.129Z,26.67
2019-01-19T23:18:25.480Z,23.37
2019-01-19T23:20:54.778Z,21.87
2019-01-19T23:23:23.803Z,24.50
2019-01-19T23:25:52.832Z,26.37
2019-01-19T23:28:22.193Z,26.97
2019-01-19T23:30:54.012Z,22.93
2019-01-19T23:33:23.343Z,25.40
2019-01-19T23:35:53.053Z,23.83
2019-01-19T23:38:22.873Z,24.30
2019-01-19T23:40:52.410Z,22.13
2019-01-19T23:43:21.795Z,25.17
2019-01-19T23:45:52.119Z,21.10
2019-01-19T23:48:21.251Z,23.27
2019-01-19T23:50:50.643Z,22.20
2019-01-19T23:53:20.029Z,25.43
2019-01-19T23:55:53.271Z,23.70
2019-01-19T23:58:22.300Z,24.90
